sensor_id;sensor_type;location;lat;lon;timestamp;P1;durP1;ratioP1;P2;durP2;ratioP2
42972;SDS011;28610;51.214;6.962;2022-11-03T00:00:04;13.10;;;3.40;;
42972;SDS011;28610;51.214;6.962;2022-11-03T00:02:50;13.73;;;3.77;;
42972;SDS011;28610;51.214;6.962;2022-11-03T00:05:37;13.87;;;4.07;;
42972;SDS011;28610;51.214;6.962;2022-11-03T00:35:49;14.87;;;4.07;;
42972;SDS011;28610;51.214;6.962;2022-11-03T00:38:35;13.40;;;4.20;;
42972;SDS011;28610;51.214;6.962;2022-11-03T00:41:21;17.43;;;4.23;;
42972;SDS011;28610;51.214;6.962;2022-11-03T00:44:07;18.40;;;4.17;;
42972;SDS011;28610;51.214;6.962;2022-11-03T00:46:53;16.60;;;4.60;;
42972;SDS011;28610;51.214;6.962;2022-11-03T00:49:39;15.90;;;4.17;;
42972;SDS011;28610;51.214;6.962;2022-11-03T00:52:25;14.43;;;4.07;;
42972;SDS011;28610;51.214;6.962;2022-11-03T00:55:11;13.67;;;4.30;;
42972;SDS011;28610;51.214;6.962;2022-11-03T00:57:56;16.60;;;4.20;;
42972;SDS011;28610;51.214;6.962;2022-11-03T01:00:42;17.23;;;4.90;;
42972;SDS011;28610;51.214;6.962;2022-11-03T01:03:27;16.67;;;4.40;;
42972;SDS011;28610;51.214;6.962;2022-11-03T01:06:13;16.60;;;4.10;;
42972;SDS011;28610;51.214;6.962;2022-11-03T01:09:17;14.90;;;4.47;;
42972;SDS011;28610;51.214;6.962;2022-11-03T01:12:04;16.60;;;4.07;;
42972;SDS011;28610;51.214;6.962;2022-11-03T01:14:52;14.17;;;4.50;;
42972;SDS011;28610;51.214;6.962;2022-11-03T01:17:38;15.73;;;4.10;;
42972;SDS011;28610;51.214;6.962;2022-11-03T01:20:23;15.37;;;4.20;;
42972;SDS011;28610;51.214;6.962;2022-11-03T01:23:09;16.80;;;4.00;;
42972;SDS011;28610;51.214;6.962;2022-11-03T01:25:55;18.40;;;4.30;;
42972;SDS011;28610;51.214;6.962;2022-11-03T01:28:41;15.37;;;4.03;;
42972;SDS011;28610;51.214;6.962;2022-11-03T01:31:27;21.07;;;5.60;;
42972;SDS011;28610;51.214;6.962;2022-11-03T01:34:13;15.10;;;4.50;;
42972;SDS011;28610;51.214;6.962;2022-11-03T01:37:00;17.90;;;4.03;;
42972;SDS011;28610;51.214;6.962;2022-11-03T01:39:45;12.27;;;3.93;;
42972;SDS011;28610;51.214;6.962;2022-11-03T01:42:32;14.90;;;4.40;;
42972;SDS011;28610;51.214;6.962;2022-11-03T01:45:18;20.00;;;4.77;;
42972;SDS011;28610;51.214;6.962;2022-11-03T01:48:04;19.70;;;4.50;;
42972;SDS011;28610;51.214;6.962;2022-11-03T01:50:49;14.23;;;4.17;;
42972;SDS011;28610;51.214;6.962;2022-11-03T01:53:36;19.53;;;4.33;;
42972;SDS011;28610;51.214;6.962;2022-11-03T01:56:25;13.83;;;4.87;;
42972;SDS011;28610;51.214;6.962;2022-11-03T01:59:14;18.97;;;4.93;;
42972;SDS011;28610;51.214;6.962;2022-11-03T02:02:02;13.50;;;4.57;;
42972;SDS011;28610;51.214;6.962;2022-11-03T02:04:47;18.97;;;5.10;;
42972;SDS011;28610;51.214;6.962;2022-11-03T02:07:34;18.17;;;4.37;;
42972;SDS011;28610;51.214;6.962;2022-11-03T02:10:22;16.43;;;5.17;;
42972;SDS011;28610;51.214;6.962;2022-11-03T02:13:09;20.73;;;4.70;;
42972;SDS011;28610;51.214;6.962;2022-11-03T02:16:00;20.33;;;4.33;;
42972;SDS011;28610;51.214;6.962;2022-11-03T02:18:46;19.50;;;4.50;;
42972;SDS011;28610;51.214;6.962;2022-11-03T02:21:33;12.13;;;4.10;;
42972;SDS011;28610;51.214;6.962;2022-11-03T02:24:30;19.47;;;4.63;;
42972;SDS011;28610;51.214;6.962;2022-11-03T02:27:21;16.63;;;4.23;;
42972;SDS011;28610;51.214;6.962;2022-11-03T02:30:07;18.13;;;4.50;;
42972;SDS011;28610;51.214;6.962;2022-11-03T02:32:54;20.60;;;5.37;;
42972;SDS011;28610;51.214;6.962;2022-11-03T02:35:44;23.60;;;5.00;;
42972;SDS011;28610;51.214;6.962;2022-11-03T02:38:35;17.80;;;4.50;;
42972;SDS011;28610;51.214;6.962;2022-11-03T02:41:27;18.00;;;4.13;;
42972;SDS011;28610;51.214;6.962;2022-11-03T02:44:15;12.33;;;4.20;;
42972;SDS011;28610;51.214;6.962;2022-11-03T02:47:03;12.97;;;4.00;;
42972;SDS011;28610;51.214;6.962;2022-11-03T02:49:52;19.33;;;4.60;;
42972;SDS011;28610;51.214;6.962;2022-11-03T02:52:39;17.50;;;4.67;;
42972;SDS011;28610;51.214;6.962;2022-11-03T02:55:28;21.07;;;4.40;;
42972;SDS011;28610;51.214;6.962;2022-11-03T02:58:18;16.90;;;4.73;;
42972;SDS011;28610;51.214;6.962;2022-11-03T03:01:13;17.77;;;3.83;;
42972;SDS011;28610;51.214;6.962;2022-11-03T03:04:03;16.70;;;4.70;;
42972;SDS011;28610;51.214;6.962;2022-11-03T03:06:52;17.10;;;4.67;;
42972;SDS011;28610;51.214;6.962;2022-11-03T03:09:42;17.37;;;4.33;;
42972;SDS011;28610;51.214;6.962;2022-11-03T03:12:31;19.87;;;4.40;;
42972;SDS011;28610;51.214;6.962;2022-11-03T03:15:20;16.87;;;4.13;;
42972;SDS011;28610;51.214;6.962;2022-11-03T03:18:15;14.87;;;4.10;;
42972;SDS011;28610;51.214;6.962;2022-11-03T03:21:05;11.60;;;4.00;;
42972;SDS011;28610;51.214;6.962;2022-11-03T03:23:57;17.43;;;4.10;;
42972;SDS011;28610;51.214;6.962;2022-11-03T03:26:46;14.80;;;4.33;;
42972;SDS011;28610;51.214;6.962;2022-11-03T03:29:41;17.67;;;4.00;;
42972;SDS011;28610;51.214;6.962;2022-11-03T03:32:30;13.00;;;4.73;;
42972;SDS011;28610;51.214;6.962;2022-11-03T03:35:21;13.37;;;4.23;;
42972;SDS011;28610;51.214;6.962;2022-11-03T03:38:18;19.80;;;4.40;;
42972;SDS011;28610;51.214;6.962;2022-11-03T03:41:06;13.30;;;4.13;;
42972;SDS011;28610;51.214;6.962;2022-11-03T03:43:54;19.93;;;4.30;;
42972;SDS011;28610;51.214;6.962;2022-11-03T03:46:41;18.50;;;4.70;;
42972;SDS011;28610;51.214;6.962;2022-11-03T03:49:29;14.50;;;4.47;;
42972;SDS011;28610;51.214;6.962;2022-11-03T03:52:16;20.60;;;4.43;;
42972;SDS011;28610;51.214;6.962;2022-11-03T03:55:02;20.33;;;4.37;;
42972;SDS011;28610;51.214;6.962;2022-11-03T03:57:51;18.57;;;4.70;;
42972;SDS011;28610;51.214;6.962;2022-11-03T04:00:37;15.50;;;4.13;;
42972;SDS011;28610;51.214;6.962;2022-11-03T04:03:24;20.27;;;5.27;;
42972;SDS011;28610;51.214;6.962;2022-11-03T04:06:09;15.07;;;3.97;;
42972;SDS011;28610;51.214;6.962;2022-11-03T04:08:56;14.23;;;4.20;;
42972;SDS011;28610;51.214;6.962;2022-11-03T04:11:42;18.57;;;4.73;;
42972;SDS011;28610;51.214;6.962;2022-11-03T04:14:44;15.93;;;4.43;;
42972;SDS011;28610;51.214;6.962;2022-11-03T04:17:48;17.77;;;4.57;;
42972;SDS011;28610;51.214;6.962;2022-11-03T04:20:51;16.93;;;4.50;;
42972;SDS011;28610;51.214;6.962;2022-11-03T04:23:54;17.00;;;4.37;;
42972;SDS011;28610;51.214;6.962;2022-11-03T04:26:43;17.03;;;4.70;;
42972;SDS011;28610;51.214;6.962;2022-11-03T04:29:28;17.27;;;4.33;;
42972;SDS011;28610;51.214;6.962;2022-11-03T04:32:15;11.83;;;3.60;;
42972;SDS011;28610;51.214;6.962;2022-11-03T04:35:01;16.80;;;5.10;;
42972;SDS011;28610;51.214;6.962;2022-11-03T04:37:59;21.00;;;4.40;;
42972;SDS011;28610;51.214;6.962;2022-11-03T04:40:49;14.87;;;4.37;;
42972;SDS011;28610;51.214;6.962;2022-11-03T04:43:36;17.93;;;4.30;;
42972;SDS011;28610;51.214;6.962;2022-11-03T04:46:23;19.73;;;4.53;;
42972;SDS011;28610;51.214;6.962;2022-11-03T04:49:10;16.77;;;4.87;;
42972;SDS011;28610;51.214;6.962;2022-11-03T04:52:00;10.93;;;3.97;;
42972;SDS011;28610;51.214;6.962;2022-11-03T04:54:47;14.03;;;4.07;;
42972;SDS011;28610;51.214;6.962;2022-11-03T04:57:35;16.50;;;4.33;;
42972;SDS011;28610;51.214;6.962;2022-11-03T05:00:22;16.97;;;4.10;;
42972;SDS011;28610;51.214;6.962;2022-11-03T05:03:08;19.27;;;4.67;;
42972;SDS011;28610;51.214;6.962;2022-11-03T05:05:59;14.27;;;4.10;;
42972;SDS011;28610;51.214;6.962;2022-11-03T05:08:54;12.87;;;4.00;;
42972;SDS011;28610;51.214;6.962;2022-11-03T05:11:43;15.07;;;4.10;;
42972;SDS011;28610;51.214;6.962;2022-11-03T05:14:30;13.63;;;4.07;;
42972;SDS011;28610;51.214;6.962;2022-11-03T05:17:19;21.57;;;4.30;;
42972;SDS011;28610;51.214;6.962;2022-11-03T05:20:08;16.73;;;4.43;;
42972;SDS011;28610;51.214;6.962;2022-11-03T05:23:12;17.60;;;4.43;;
42972;SDS011;28610;51.214;6.962;2022-11-03T05:25:58;12.17;;;4.07;;
42972;SDS011;28610;51.214;6.962;2022-11-03T05:28:44;13.47;;;4.20;;
42972;SDS011;28610;51.214;6.962;2022-11-03T05:31:34;14.40;;;4.03;;
42972;SDS011;28610;51.214;6.962;2022-11-03T05:34:25;16.07;;;4.27;;
42972;SDS011;28610;51.214;6.962;2022-11-03T05:37:21;12.90;;;3.80;;
42972;SDS011;28610;51.214;6.962;2022-11-03T05:40:20;15.30;;;4.17;;
42972;SDS011;28610;51.214;6.962;2022-11-03T05:43:07;14.33;;;4.13;;
42972;SDS011;28610;51.214;6.962;2022-11-03T05:45:57;15.93;;;4.30;;
42972;SDS011;28610;51.214;6.962;2022-11-03T05:48:47;11.53;;;4.50;;
42972;SDS011;28610;51.214;6.962;2022-11-03T05:51:33;15.40;;;4.30;;
42972;SDS011;28610;51.214;6.962;2022-11-03T05:54:22;14.80;;;4.43;;
42972;SDS011;28610;51.214;6.962;2022-11-03T05:57:10;17.17;;;4.63;;
42972;SDS011;28610;51.214;6.962;2022-11-03T05:59:57;18.17;;;4.23;;
42972;SDS011;28610;51.214;6.962;2022-11-03T06:02:43;17.30;;;4.50;;
42972;SDS011;28610;51.214;6.962;2022-11-03T06:05:31;15.50;;;4.27;;
42972;SDS011;28610;51.214;6.962;2022-11-03T06:08:18;12.60;;;4.53;;
42972;SDS011;28610;51.214;6.962;2022-11-03T06:11:04;17.27;;;4.50;;
42972;SDS011;28610;51.214;6.962;2022-11-03T06:13:49;14.13;;;4.30;;
42972;SDS011;28610;51.214;6.962;2022-11-03T06:16:36;18.47;;;3.93;;
42972;SDS011;28610;51.214;6.962;2022-11-03T06:19:25;15.53;;;4.73;;
42972;SDS011;28610;51.214;6.962;2022-11-03T06:22:14;13.30;;;4.10;;
42972;SDS011;28610;51.214;6.962;2022-11-03T06:25:09;12.17;;;4.03;;
42972;SDS011;28610;51.214;6.962;2022-11-03T06:28:00;14.27;;;4.33;;
42972;SDS011;28610;51.214;6.962;2022-11-03T06:30:47;15.47;;;4.77;;
42972;SDS011;28610;51.214;6.962;2022-11-03T06:33:33;17.93;;;4.60;;
42972;SDS011;28610;51.214;6.962;2022-11-03T06:36:19;12.33;;;4.00;;
42972;SDS011;28610;51.214;6.962;2022-11-03T06:39:12;13.10;;;4.33;;
42972;SDS011;28610;51.214;6.962;2022-11-03T06:42:09;16.77;;;4.53;;
42972;SDS011;28610;51.214;6.962;2022-11-03T06:44:55;15.77;;;4.33;;
42972;SDS011;28610;51.214;6.962;2022-11-03T06:47:41;17.17;;;4.53;;
42972;SDS011;28610;51.214;6.962;2022-11-03T06:50:27;12.77;;;4.07;;
42972;SDS011;28610;51.214;6.962;2022-11-03T06:53:18;14.07;;;4.37;;
42972;SDS011;28610;51.214;6.962;2022-11-03T06:56:08;13.67;;;4.07;;
42972;SDS011;28610;51.214;6.962;2022-11-03T06:58:58;14.17;;;4.03;;
42972;SDS011;28610;51.214;6.962;2022-11-03T07:01:45;19.57;;;4.30;;
42972;SDS011;28610;51.214;6.962;2022-11-03T07:04:32;14.83;;;4.20;;
42972;SDS011;28610;51.214;6.962;2022-11-03T07:07:18;16.33;;;4.53;;
42972;SDS011;28610;51.214;6.962;2022-11-03T07:10:05;12.13;;;4.40;;
42972;SDS011;28610;51.214;6.962;2022-11-03T07:12:53;12.93;;;4.10;;
42972;SDS011;28610;51.214;6.962;2022-11-03T07:15:39;12.53;;;4.23;;
42972;SDS011;28610;51.214;6.962;2022-11-03T07:18:28;17.30;;;4.43;;
42972;SDS011;28610;51.214;6.962;2022-11-03T07:21:23;23.33;;;4.40;;
42972;SDS011;28610;51.214;6.962;2022-11-03T07:24:15;13.80;;;4.30;;
42972;SDS011;28610;51.214;6.962;2022-11-03T07:27:06;20.57;;;4.97;;
42972;SDS011;28610;51.214;6.962;2022-11-03T07:30:04;16.67;;;4.10;;
42972;SDS011;28610;51.214;6.962;2022-11-03T07:33:00;13.73;;;4.43;;
42972;SDS011;28610;51.214;6.962;2022-11-03T07:35:53;16.77;;;4.33;;
42972;SDS011;28610;51.214;6.962;2022-11-03T07:38:41;18.17;;;4.23;;
42972;SDS011;28610;51.214;6.962;2022-11-03T07:41:30;15.83;;;4.10;;
42972;SDS011;28610;51.214;6.962;2022-11-03T07:44:17;20.47;;;4.20;;
42972;SDS011;28610;51.214;6.962;2022-11-03T07:47:08;21.20;;;4.70;;
42972;SDS011;28610;51.214;6.962;2022-11-03T07:49:57;19.03;;;4.83;;
42972;SDS011;28610;51.214;6.962;2022-11-03T07:52:43;17.50;;;4.30;;
42972;SDS011;28610;51.214;6.962;2022-11-03T07:55:28;16.63;;;4.00;;
42972;SDS011;28610;51.214;6.962;2022-11-03T07:58:17;14.63;;;4.40;;
42972;SDS011;28610;51.214;6.962;2022-11-03T08:01:07;12.60;;;4.10;;
42972;SDS011;28610;51.214;6.962;2022-11-03T08:04:09;16.77;;;4.43;;
42972;SDS011;28610;51.214;6.962;2022-11-03T08:06:56;13.83;;;4.03;;
42972;SDS011;28610;51.214;6.962;2022-11-03T08:09:42;14.03;;;4.33;;
42972;SDS011;28610;51.214;6.962;2022-11-03T08:12:27;11.73;;;4.40;;
42972;SDS011;28610;51.214;6.962;2022-11-03T08:15:13;17.43;;;4.73;;
42972;SDS011;28610;51.214;6.962;2022-11-03T08:17:58;11.83;;;3.70;;
42972;SDS011;28610;51.214;6.962;2022-11-03T08:20:45;13.40;;;4.23;;
42972;SDS011;28610;51.214;6.962;2022-11-03T08:23:30;11.20;;;3.70;;
42972;SDS011;28610;51.214;6.962;2022-11-03T08:26:16;20.43;;;4.70;;
42972;SDS011;28610;51.214;6.962;2022-11-03T08:29:02;15.97;;;4.20;;
42972;SDS011;28610;51.214;6.962;2022-11-03T08:31:47;14.17;;;4.13;;
42972;SDS011;28610;51.214;6.962;2022-11-03T08:34:33;11.70;;;4.10;;
42972;SDS011;28610;51.214;6.962;2022-11-03T08:37:20;13.20;;;4.40;;
42972;SDS011;28610;51.214;6.962;2022-11-03T08:40:06;15.93;;;4.70;;
42972;SDS011;28610;51.214;6.962;2022-11-03T08:42:52;13.80;;;4.20;;
42972;SDS011;28610;51.214;6.962;2022-11-03T08:45:38;20.43;;;4.70;;
42972;SDS011;28610;51.214;6.962;2022-11-03T08:48:24;10.07;;;3.97;;
42972;SDS011;28610;51.214;6.962;2022-11-03T08:51:10;11.60;;;4.00;;
42972;SDS011;28610;51.214;6.962;2022-11-03T08:53:58;12.50;;;4.20;;
42972;SDS011;28610;51.214;6.962;2022-11-03T08:56:43;14.53;;;4.10;;
42972;SDS011;28610;51.214;6.962;2022-11-03T08:59:31;13.83;;;4.00;;
42972;SDS011;28610;51.214;6.962;2022-11-03T09:02:17;16.73;;;4.23;;
42972;SDS011;28610;51.214;6.962;2022-11-03T09:05:02;13.13;;;4.00;;
42972;SDS011;28610;51.214;6.962;2022-11-03T09:07:48;12.03;;;3.97;;
42972;SDS011;28610;51.214;6.962;2022-11-03T09:10:35;20.23;;;4.50;;
42972;SDS011;28610;51.214;6.962;2022-11-03T09:13:21;15.00;;;3.90;;
42972;SDS011;28610;51.214;6.962;2022-11-03T09:16:07;16.63;;;3.90;;
42972;SDS011;28610;51.214;6.962;2022-11-03T09:18:52;13.93;;;4.10;;
42972;SDS011;28610;51.214;6.962;2022-11-03T09:21:38;13.00;;;4.10;;
42972;SDS011;28610;51.214;6.962;2022-11-03T09:24:23;13.57;;;4.33;;
42972;SDS011;28610;51.214;6.962;2022-11-03T09:27:10;10.13;;;3.80;;
42972;SDS011;28610;51.214;6.962;2022-11-03T09:29:55;18.60;;;4.10;;
42972;SDS011;28610;51.214;6.962;2022-11-03T09:32:41;10.83;;;3.50;;
42972;SDS011;28610;51.214;6.962;2022-11-03T09:35:26;12.63;;;3.90;;
42972;SDS011;28610;51.214;6.962;2022-11-03T09:38:12;15.07;;;4.20;;
42972;SDS011;28610;51.214;6.962;2022-11-03T09:40:57;12.57;;;3.60;;
42972;SDS011;28610;51.214;6.962;2022-11-03T09:43:45;12.33;;;3.60;;
42972;SDS011;28610;51.214;6.962;2022-11-03T09:46:32;10.67;;;3.40;;
42972;SDS011;28610;51.214;6.962;2022-11-03T09:49:18;9.87;;;3.93;;
42972;SDS011;28610;51.214;6.962;2022-11-03T09:52:04;16.40;;;3.90;;
42972;SDS011;28610;51.214;6.962;2022-11-03T09:54:51;12.90;;;3.73;;
42972;SDS011;28610;51.214;6.962;2022-11-03T09:57:38;9.43;;;3.97;;
42972;SDS011;28610;51.214;6.962;2022-11-03T10:00:25;15.03;;;3.97;;
42972;SDS011;28610;51.214;6.962;2022-11-03T10:03:11;13.03;;;3.63;;
42972;SDS011;28610;51.214;6.962;2022-11-03T10:05:58;11.40;;;3.70;;
42972;SDS011;28610;51.214;6.962;2022-11-03T10:08:43;14.60;;;3.30;;
42972;SDS011;28610;51.214;6.962;2022-11-03T10:11:30;13.27;;;3.30;;
42972;SDS011;28610;51.214;6.962;2022-11-03T10:14:16;13.13;;;3.47;;
42972;SDS011;28610;51.214;6.962;2022-11-03T10:17:05;11.90;;;3.60;;
42972;SDS011;28610;51.214;6.962;2022-11-03T10:19:50;11.30;;;3.50;;
42972;SDS011;28610;51.214;6.962;2022-11-03T10:22:39;12.00;;;3.43;;
42972;SDS011;28610;51.214;6.962;2022-11-03T10:25:35;10.50;;;3.47;;
42972;SDS011;28610;51.214;6.962;2022-11-03T10:28:22;9.93;;;3.27;;
42972;SDS011;28610;51.214;6.962;2022-11-03T10:31:17;10.87;;;3.90;;
42972;SDS011;28610;51.214;6.962;2022-11-03T10:34:05;8.80;;;3.10;;
42972;SDS011;28610;51.214;6.962;2022-11-03T10:37:09;13.40;;;3.57;;
42972;SDS011;28610;51.214;6.962;2022-11-03T10:40:00;11.00;;;3.40;;
42972;SDS011;28610;51.214;6.962;2022-11-03T10:42:47;13.33;;;3.90;;
42972;SDS011;28610;51.214;6.962;2022-11-03T10:45:42;8.73;;;3.40;;
42972;SDS011;28610;51.214;6.962;2022-11-03T10:48:27;18.50;;;4.20;;
42972;SDS011;28610;51.214;6.962;2022-11-03T10:51:14;13.00;;;3.57;;
42972;SDS011;28610;51.214;6.962;2022-11-03T10:54:00;7.13;;;3.07;;
42972;SDS011;28610;51.214;6.962;2022-11-03T10:56:47;11.10;;;3.00;;
42972;SDS011;28610;51.214;6.962;2022-11-03T10:59:35;10.17;;;3.00;;
42972;SDS011;28610;51.214;6.962;2022-11-03T11:02:22;11.27;;;3.10;;
42972;SDS011;28610;51.214;6.962;2022-11-03T11:05:12;8.17;;;2.87;;
42972;SDS011;28610;51.214;6.962;2022-11-03T11:08:00;10.83;;;3.23;;
42972;SDS011;28610;51.214;6.962;2022-11-03T11:10:45;8.37;;;3.30;;
42972;SDS011;28610;51.214;6.962;2022-11-03T11:13:31;11.07;;;3.20;;
42972;SDS011;28610;51.214;6.962;2022-11-03T11:22:49;7.20;;;2.77;;
42972;SDS011;28610;51.214;6.962;2022-11-03T11:39:03;10.10;;;2.87;;
42972;SDS011;28610;51.214;6.962;2022-11-03T11:42:07;12.03;;;4.07;;
42972;SDS011;28610;51.214;6.962;2022-11-03T11:44:59;9.83;;;4.10;;
42972;SDS011;28610;51.214;6.962;2022-11-03T11:47:47;11.87;;;3.00;;
42972;SDS011;28610;51.214;6.962;2022-11-03T11:50:33;10.37;;;2.90;;
42972;SDS011;28610;51.214;6.962;2022-11-03T11:53:19;8.37;;;3.00;;
42972;SDS011;28610;51.214;6.962;2022-11-03T11:56:07;10.13;;;4.20;;
42972;SDS011;28610;51.214;6.962;2022-11-03T11:58:56;10.43;;;3.30;;
42972;SDS011;28610;51.214;6.962;2022-11-03T12:01:42;10.90;;;3.33;;
42972;SDS011;28610;51.214;6.962;2022-11-03T12:04:28;8.30;;;3.00;;
42972;SDS011;28610;51.214;6.962;2022-11-03T12:07:15;9.63;;;3.30;;
42972;SDS011;28610;51.214;6.962;2022-11-03T12:10:06;9.90;;;2.87;;
42972;SDS011;28610;51.214;6.962;2022-11-03T12:12:51;11.37;;;2.83;;
42972;SDS011;28610;51.214;6.962;2022-11-03T12:15:48;8.43;;;3.37;;
42972;SDS011;28610;51.214;6.962;2022-11-03T12:18:42;10.37;;;3.50;;
42972;SDS011;28610;51.214;6.962;2022-11-03T12:21:43;8.50;;;2.90;;
42972;SDS011;28610;51.214;6.962;2022-11-03T12:27:41;16.47;;;3.70;;
42972;SDS011;28610;51.214;6.962;2022-11-03T12:30:26;7.40;;;3.13;;
42972;SDS011;28610;51.214;6.962;2022-11-03T12:33:13;10.93;;;3.50;;
42972;SDS011;28610;51.214;6.962;2022-11-03T12:35:58;10.13;;;3.13;;
42972;SDS011;28610;51.214;6.962;2022-11-03T12:38:44;12.03;;;3.27;;
42972;SDS011;28610;51.214;6.962;2022-11-03T12:41:29;10.37;;;2.90;;
42972;SDS011;28610;51.214;6.962;2022-11-03T12:44:15;13.47;;;3.30;;
42972;SDS011;28610;51.214;6.962;2022-11-03T12:47:00;9.87;;;3.00;;
42972;SDS011;28610;51.214;6.962;2022-11-03T12:49:47;12.40;;;3.40;;
42972;SDS011;28610;51.214;6.962;2022-11-03T12:52:32;11.27;;;3.03;;
42972;SDS011;28610;51.214;6.962;2022-11-03T12:55:18;7.80;;;2.97;;
42972;SDS011;28610;51.214;6.962;2022-11-03T12:58:03;8.53;;;3.27;;
42972;SDS011;28610;51.214;6.962;2022-11-03T13:00:50;8.00;;;3.13;;
42972;SDS011;28610;51.214;6.962;2022-11-03T13:03:35;8.03;;;3.23;;
42972;SDS011;28610;51.214;6.962;2022-11-03T13:06:22;8.83;;;2.90;;
42972;SDS011;28610;51.214;6.962;2022-11-03T13:09:08;9.83;;;3.33;;
42972;SDS011;28610;51.214;6.962;2022-11-03T13:11:54;8.77;;;3.47;;
42972;SDS011;28610;51.214;6.962;2022-11-03T13:14:59;8.77;;;3.37;;
42972;SDS011;28610;51.214;6.962;2022-11-03T13:17:45;7.57;;;3.13;;
42972;SDS011;28610;51.214;6.962;2022-11-03T13:20:31;9.30;;;3.50;;
42972;SDS011;28610;51.214;6.962;2022-11-03T13:23:17;9.33;;;3.33;;
42972;SDS011;28610;51.214;6.962;2022-11-03T13:26:03;12.07;;;3.60;;
42972;SDS011;28610;51.214;6.962;2022-11-03T13:28:49;9.07;;;3.30;;
42972;SDS011;28610;51.214;6.962;2022-11-03T13:31:34;10.27;;;3.23;;
42972;SDS011;28610;51.214;6.962;2022-11-03T13:34:20;11.33;;;3.40;;
42972;SDS011;28610;51.214;6.962;2022-11-03T13:37:05;9.50;;;4.00;;
42972;SDS011;28610;51.214;6.962;2022-11-03T13:39:52;10.20;;;3.47;;
42972;SDS011;28610;51.214;6.962;2022-11-03T13:42:37;14.50;;;3.50;;
42972;SDS011;28610;51.214;6.962;2022-11-03T13:45:23;15.10;;;3.40;;
42972;SDS011;28610;51.214;6.962;2022-11-03T13:48:08;11.23;;;3.53;;
42972;SDS011;28610;51.214;6.962;2022-11-03T13:50:54;11.60;;;3.60;;
42972;SDS011;28610;51.214;6.962;2022-11-03T13:53:39;9.40;;;3.47;;
42972;SDS011;28610;51.214;6.962;2022-11-03T13:56:26;10.80;;;3.40;;
42972;SDS011;28610;51.214;6.962;2022-11-03T13:59:12;12.00;;;3.70;;
42972;SDS011;28610;51.214;6.962;2022-11-03T14:01:58;12.80;;;3.50;;
42972;SDS011;28610;51.214;6.962;2022-11-03T14:04:43;8.77;;;3.50;;
42972;SDS011;28610;51.214;6.962;2022-11-03T14:07:29;10.10;;;3.60;;
42972;SDS011;28610;51.214;6.962;2022-11-03T14:10:14;10.90;;;3.60;;
42972;SDS011;28610;51.214;6.962;2022-11-03T14:13:01;7.77;;;4.03;;
42972;SDS011;28610;51.214;6.962;2022-11-03T14:15:46;11.13;;;3.80;;
42972;SDS011;28610;51.214;6.962;2022-11-03T14:18:32;12.07;;;3.77;;
42972;SDS011;28610;51.214;6.962;2022-11-03T14:21:17;11.73;;;4.00;;
42972;SDS011;28610;51.214;6.962;2022-11-03T14:24:03;11.00;;;3.53;;
42972;SDS011;28610;51.214;6.962;2022-11-03T14:26:49;9.83;;;3.53;;
42972;SDS011;28610;51.214;6.962;2022-11-03T14:29:36;8.30;;;3.80;;
42972;SDS011;28610;51.214;6.962;2022-11-03T14:32:21;8.53;;;3.90;;
42972;SDS011;28610;51.214;6.962;2022-11-03T14:35:07;11.57;;;3.63;;
42972;SDS011;28610;51.214;6.962;2022-11-03T14:37:53;9.67;;;3.40;;
42972;SDS011;28610;51.214;6.962;2022-11-03T14:40:39;9.70;;;3.73;;
42972;SDS011;28610;51.214;6.962;2022-11-03T14:43:42;11.17;;;3.80;;
42972;SDS011;28610;51.214;6.962;2022-11-03T14:46:29;12.87;;;3.93;;
42972;SDS011;28610;51.214;6.962;2022-11-03T14:49:14;11.93;;;3.90;;
42972;SDS011;28610;51.214;6.962;2022-11-03T14:52:00;9.97;;;4.03;;
42972;SDS011;28610;51.214;6.962;2022-11-03T14:54:47;12.00;;;3.90;;
42972;SDS011;28610;51.214;6.962;2022-11-03T14:57:33;11.20;;;3.83;;
42972;SDS011;28610;51.214;6.962;2022-11-03T15:00:19;11.53;;;3.83;;
42972;SDS011;28610;51.214;6.962;2022-11-03T15:03:06;11.13;;;4.10;;
42972;SDS011;28610;51.214;6.962;2022-11-03T15:05:51;10.97;;;4.37;;
42972;SDS011;28610;51.214;6.962;2022-11-03T15:08:38;10.10;;;4.07;;
42972;SDS011;28610;51.214;6.962;2022-11-03T15:11:24;10.47;;;4.20;;
42972;SDS011;28610;51.214;6.962;2022-11-03T15:14:09;11.13;;;4.50;;
42972;SDS011;28610;51.214;6.962;2022-11-03T15:16:55;10.63;;;4.20;;
42972;SDS011;28610;51.214;6.962;2022-11-03T15:19:42;12.77;;;4.43;;
42972;SDS011;28610;51.214;6.962;2022-11-03T15:22:27;11.83;;;5.30;;
42972;SDS011;28610;51.214;6.962;2022-11-03T15:25:13;12.40;;;4.73;;
42972;SDS011;28610;51.214;6.962;2022-11-03T15:27:58;13.30;;;4.93;;
42972;SDS011;28610;51.214;6.962;2022-11-03T15:30:44;14.47;;;5.63;;
42972;SDS011;28610;51.214;6.962;2022-11-03T15:33:29;10.67;;;4.60;;
42972;SDS011;28610;51.214;6.962;2022-11-03T15:36:16;14.90;;;5.40;;
42972;SDS011;28610;51.214;6.962;2022-11-03T15:39:01;15.23;;;4.97;;
42972;SDS011;28610;51.214;6.962;2022-11-03T15:41:47;9.33;;;4.70;;
42972;SDS011;28610;51.214;6.962;2022-11-03T15:44:33;12.17;;;4.90;;
42972;SDS011;28610;51.214;6.962;2022-11-03T15:47:18;12.10;;;4.80;;
42972;SDS011;28610;51.214;6.962;2022-11-03T15:50:04;15.63;;;4.87;;
42972;SDS011;28610;51.214;6.962;2022-11-03T15:52:51;12.80;;;4.70;;
42972;SDS011;28610;51.214;6.962;2022-11-03T15:55:36;10.10;;;4.43;;
42972;SDS011;28610;51.214;6.962;2022-11-03T15:58:21;16.50;;;5.07;;
42972;SDS011;28610;51.214;6.962;2022-11-03T16:01:07;14.63;;;5.90;;
42972;SDS011;28610;51.214;6.962;2022-11-03T16:03:53;12.77;;;5.43;;
42972;SDS011;28610;51.214;6.962;2022-11-03T16:06:38;13.67;;;5.40;;
42972;SDS011;28610;51.214;6.962;2022-11-03T16:09:25;14.60;;;5.00;;
42972;SDS011;28610;51.214;6.962;2022-11-03T16:12:11;12.83;;;5.60;;
42972;SDS011;28610;51.214;6.962;2022-11-03T16:14:56;12.83;;;5.63;;
42972;SDS011;28610;51.214;6.962;2022-11-03T16:17:42;11.13;;;5.33;;
42972;SDS011;28610;51.214;6.962;2022-11-03T16:20:27;15.57;;;5.73;;
42972;SDS011;28610;51.214;6.962;2022-11-03T16:23:13;12.60;;;5.93;;
42972;SDS011;28610;51.214;6.962;2022-11-03T16:26:00;11.57;;;5.53;;
42972;SDS011;28610;51.214;6.962;2022-11-03T16:28:48;13.70;;;5.40;;
42972;SDS011;28610;51.214;6.962;2022-11-03T16:31:33;12.27;;;6.13;;
42972;SDS011;28610;51.214;6.962;2022-11-03T16:34:18;15.50;;;6.00;;
42972;SDS011;28610;51.214;6.962;2022-11-03T16:37:04;14.60;;;5.90;;
42972;SDS011;28610;51.214;6.962;2022-11-03T16:39:49;14.97;;;5.70;;
42972;SDS011;28610;51.214;6.962;2022-11-03T16:42:36;13.57;;;5.77;;
42972;SDS011;28610;51.214;6.962;2022-11-03T16:45:22;11.43;;;5.77;;
42972;SDS011;28610;51.214;6.962;2022-11-03T16:48:09;15.17;;;5.63;;
42972;SDS011;28610;51.214;6.962;2022-11-03T16:50:54;15.07;;;6.10;;
42972;SDS011;28610;51.214;6.962;2022-11-03T16:53:40;14.23;;;6.27;;
42972;SDS011;28610;51.214;6.962;2022-11-03T16:56:25;12.70;;;6.00;;
42972;SDS011;28610;51.214;6.962;2022-11-03T16:59:12;14.30;;;6.20;;
42972;SDS011;28610;51.214;6.962;2022-11-03T17:01:57;11.43;;;6.37;;
42972;SDS011;28610;51.214;6.962;2022-11-03T17:04:44;14.83;;;6.57;;
42972;SDS011;28610;51.214;6.962;2022-11-03T17:07:29;13.83;;;6.60;;
42972;SDS011;28610;51.214;6.962;2022-11-03T17:10:15;14.63;;;6.67;;
42972;SDS011;28610;51.214;6.962;2022-11-03T17:13:00;14.30;;;6.20;;
42972;SDS011;28610;51.214;6.962;2022-11-03T17:15:47;14.53;;;6.33;;
42972;SDS011;28610;51.214;6.962;2022-11-03T17:18:33;13.37;;;6.30;;
42972;SDS011;28610;51.214;6.962;2022-11-03T17:21:19;12.93;;;5.90;;
42972;SDS011;28610;51.214;6.962;2022-11-03T17:24:04;13.43;;;6.03;;
42972;SDS011;28610;51.214;6.962;2022-11-03T17:26:53;13.83;;;6.20;;